Jessica Lyn — WDC4973 — position and weather

sailwx.info

Track history (hours):
 
Tides and Currents Weather Stations Pressure Air Temp Water Temp Dewpoint Dewpoint Depression Visibility Wind Speed Wind Dir Waves Ship Positions

Jessica Lyn

Owner: Peninsula Bay Enterprises, Crystal beach, TX. More information available from US FCC via Universal Licensing System and Coast Guard Vessel Documentation Center.

Last reported at 2018-Jun-20 01:30 UTC. Time now 2018-Jun-21 02:47 UTC.
Position N 29°37' W 094°51'.

Type: Fishing. MMSI: 367033730.

Date/timePositionNaut miles runAvg speedWind from/ knotsBaromVisibWave heightAir tempDewpointWater temp
2018-Jun-20 01:30N 29°37' W 094°51'0 0.0
2018-Jun-20 00:59N 29°37' W 094°51'  
2018-Jun-16 12:52N 29°38' W 094°18'2 5.7
2018-Jun-16 12:30N 29°39' W 094°16'3 5.8
2018-Jun-16 12:00N 29°41' W 094°13'3 5.4
2018-Jun-16 11:30N 29°41' W 094°10'2 4.6
2018-Jun-16 11:00N 29°43' W 094°08'3 6.0
2018-Jun-16 10:30N 29°45' W 094°05'3 6.2
2018-Jun-16 10:00N 29°47' W 094°02'3 6.0
2018-Jun-16 09:30N 29°49' W 093°60'2 4.7
2018-Jun-16 09:01N 29°50' W 093°57'3 6.1
2018-Jun-16 08:30N 29°52' W 093°56'3 5.7
2018-Jun-16 08:00N 29°55' W 093°54'3 6.6
2018-Jun-16 07:30N 29°57' W 093°52'2 4.8
2018-Jun-16 07:00N 29°59' W 093°49'3 5.8
2018-Jun-16 06:30N 30°00' W 093°46'3 6.1
2018-Jun-16 05:58N 30°03' W 093°44'3 5.7
2018-Jun-16 05:29N 30°04' W 093°41'7 5.6
2018-Jun-16 04:08N 30°04' W 093°32'1 5.2
2018-Jun-16 03:59N 30°04' W 093°31'2 5.1
2018-Jun-16 03:31N 30°04' W 093°28'3 5.2
2018-Jun-16 03:00N 30°04' W 093°25'2 4.7
2018-Jun-16 02:31N 30°04' W 093°23'2 3.8
2018-Jun-16 02:01N 30°04' W 093°21'1 2.2
2018-Jun-16 01:31N 30°05' W 093°20'2 3.3
2018-Jun-16 01:01N 30°06' W 093°19'1 2.5
2018-Jun-16 00:30N 30°05' W 093°18'1 1.6
2018-Jun-16 00:00N 30°05' W 093°17'1 1.1
2018-Jun-15 23:31N 30°04' W 093°16'0 0.2
2018-Jun-15 23:00N 30°04' W 093°16'0 0.6
2018-Jun-15 22:30N 30°04' W 093°16'0 0.1
2018-Jun-15 22:01N 30°04' W 093°16'0 0.0
2018-Jun-15 21:30N 30°04' W 093°16'0 0.0
2018-Jun-15 21:00N 30°04' W 093°16'0 0.0
2018-Jun-15 20:30N 30°04' W 093°16'0 0.0
2018-Jun-15 20:00N 30°04' W 093°16'0 0.0
2018-Jun-15 19:30N 30°04' W 093°16'0 0.0
2018-Jun-15 19:01N 30°04' W 093°16'0 0.0
2018-Jun-15 18:31N 30°04' W 093°16'0 0.0
2018-Jun-15 18:01N 30°04' W 093°16'0 0.0
2018-Jun-15 17:31N 30°04' W 093°16'0 0.0
2018-Jun-15 17:00N 30°04' W 093°16'0 0.0
2018-Jun-15 16:31N 30°04' W 093°16'0 0.0
2018-Jun-15 16:00N 30°04' W 093°16'0 0.0
2018-Jun-15 15:31N 30°04' W 093°16'0 0.0
2018-Jun-15 15:00N 30°04' W 093°16'0 0.0
2018-Jun-15 14:30N 30°04' W 093°16'0 0.0
2018-Jun-15 14:00N 30°04' W 093°16'0 0.0
2018-Jun-15 13:30N 30°04' W 093°16'0 0.0
2018-Jun-15 13:00N 30°04' W 093°16'0 0.0
2018-Jun-15 12:30N 30°04' W 093°16'0 0.0
2018-Jun-15 12:00N 30°04' W 093°16'0 0.0
2018-Jun-15 11:30N 30°04' W 093°16'0 0.0
2018-Jun-15 11:01N 30°04' W 093°16'0 0.0
2018-Jun-15 10:30N 30°04' W 093°16'0 0.0
2018-Jun-15 10:00N 30°04' W 093°16'0 0.0
2018-Jun-15 09:31N 30°04' W 093°16'0 0.0
2018-Jun-15 09:00N 30°04' W 093°16'0 0.0
2018-Jun-15 08:30N 30°04' W 093°16'0 0.0
2018-Jun-15 08:01N 30°04' W 093°16'0 0.0
2018-Jun-15 07:30N 30°04' W 093°16'0 0.0
2018-Jun-15 07:00N 30°04' W 093°16'0 0.0
2018-Jun-15 06:31N 30°04' W 093°16'0 0.0
2018-Jun-15 06:00N 30°04' W 093°16'0 0.0
2018-Jun-15 05:31N 30°04' W 093°16'0 0.0
2018-Jun-15 05:00N 30°04' W 093°16'0 0.0
2018-Jun-15 04:31N 30°04' W 093°16'0 0.0
2018-Jun-15 04:01N 30°04' W 093°16'0 0.0
2018-Jun-15 03:31N 30°04' W 093°16'0 0.0
2018-Jun-15 03:00N 30°04' W 093°16'0 0.0
2018-Jun-15 02:31N 30°04' W 093°16'0 0.0
2018-Jun-15 02:01N 30°04' W 093°16'0 0.0
2018-Jun-15 01:30N 30°04' W 093°16'0 0.0
2018-Jun-15 01:01N 30°04' W 093°16'0 0.0
2018-Jun-15 00:31N 30°04' W 093°16'0 0.0
2018-Jun-15 00:01N 30°04' W 093°16'0 0.0
2018-Jun-14 23:30N 30°04' W 093°16'0 0.0
2018-Jun-14 23:01N 30°04' W 093°16'0 0.0
2018-Jun-14 22:30N 30°04' W 093°16'0 0.0
2018-Jun-14 22:00N 30°04' W 093°16'0 0.0
2018-Jun-14 21:30N 30°04' W 093°16'0 0.0
2018-Jun-14 21:01N 30°04' W 093°16'0 0.0
2018-Jun-14 20:30N 30°04' W 093°16'0 0.0
2018-Jun-14 20:00N 30°04' W 093°16'0 0.0
2018-Jun-14 19:30N 30°04' W 093°16'0 0.0
2018-Jun-14 19:00N 30°04' W 093°16'0 0.0
2018-Jun-14 18:30N 30°04' W 093°16'0 0.0
2018-Jun-14 18:01N 30°04' W 093°16'0 0.0
2018-Jun-14 17:31N 30°04' W 093°16'0 0.0
2018-Jun-14 17:01N 30°04' W 093°16'0 0.0
2018-Jun-14 16:31N 30°04' W 093°16'0 0.0
2018-Jun-14 16:00N 30°04' W 093°16'0 0.0
2018-Jun-14 15:31N 30°04' W 093°16'0 0.0
2018-Jun-14 15:01N 30°04' W 093°16'0 0.0
2018-Jun-14 14:30N 30°04' W 093°16'0 0.0
2018-Jun-14 14:00N 30°04' W 093°16'0 0.0
2018-Jun-14 13:30N 30°04' W 093°16'0 0.0
2018-Jun-14 13:01N 30°04' W 093°16'0 0.0
2018-Jun-14 12:30N 30°04' W 093°16'0 0.0
2018-Jun-14 12:00N 30°04' W 093°16'0 0.0
2018-Jun-14 11:31N 30°04' W 093°16'0 0.0
2018-Jun-14 11:00N 30°04' W 093°16'0 0.5
2018-Jun-14 10:30N 30°04' W 093°16'0 0.9
2018-Jun-14 10:00N 30°03' W 093°16'0 0.1
2018-Jun-14 09:31N 30°03' W 093°16'1 2.4
2018-Jun-14 09:00N 30°02' W 093°15'2 4.9
2018-Jun-14 08:30N 30°00' W 093°14'3 4.8
2018-Jun-14 07:57N 29°58' W 093°12'1 2.0
2018-Jun-14 07:30N 29°58' W 093°11'0 0.0
2018-Jun-14 07:01N 29°58' W 093°11'1 2.6
2018-Jun-14 06:31N 29°57' W 093°10'0 0.0
2018-Jun-14 05:57N 29°57' W 093°10'0 0.0
2018-Jun-14 05:30N 29°57' W 093°10'0 0.0
2018-Jun-14 05:00N 29°57' W 093°10'0 0.0
2018-Jun-14 04:30N 29°57' W 093°10'0 0.0
2018-Jun-14 04:00N 29°57' W 093°10'1 2.4
2018-Jun-14 03:30N 29°56' W 093°09'42 4.9
2018-Jun-13 18:55N 29°51' W 092°21'2 4.5
2018-Jun-13 18:26N 29°50' W 092°18'2 4.9
2018-Jun-13 18:01N 29°49' W 092°17'3 5.4
2018-Jun-13 17:30N 29°48' W 092°14'1 2.7
2018-Jun-13 17:01N 29°47' W 092°12'1 2.0
2018-Jun-13 16:30N 29°47' W 092°11'3 5.2
2018-Jun-13 16:00N 29°47' W 092°08'3 5.3
2018-Jun-13 15:30N 29°48' W 092°05'3 5.3
2018-Jun-13 15:00N 29°49' W 092°02'3 5.7
2018-Jun-13 14:30N 29°50' W 091°59'4 0.2
2018-Jun-12 20:00N 29°49' W 092°03'3 5.5
2018-Jun-12 19:29N 29°48' W 092°06'3 5.4
2018-Jun-12 19:00N 29°47' W 092°09'3 5.3
2018-Jun-12 18:30N 29°47' W 092°12'1 1.0
2018-Jun-12 18:00N 29°47' W 092°13'3 5.9
2018-Jun-12 17:30N 29°49' W 092°16'3 5.6
2018-Jun-12 16:59N 29°50' W 092°19'44 5.1
2018-Jun-12 08:16N 29°56' W 093°09'1 4.5
2018-Jun-12 07:59N 29°57' W 093°10'3 5.4
2018-Jun-12 07:28N 29°59' W 093°12'2 4.4
2018-Jun-12 07:00N 30°01' W 093°14'2 4.7
2018-Jun-12 06:30N 30°02' W 093°16'3 5.3
2018-Jun-12 06:00N 30°05' W 093°17'1 1.6
2018-Jun-12 05:31N 30°05' W 093°18'1 1.5
2018-Jun-12 05:00N 30°06' W 093°18'1 1.6
2018-Jun-12 04:30N 30°06' W 093°19'2 3.9
2018-Jun-12 04:01N 30°04' W 093°21'2 3.9
2018-Jun-12 03:30N 30°04' W 093°23'0 0.7
2018-Jun-12 03:00N 30°04' W 093°23'0 0.0
2018-Jun-12 02:30N 30°04' W 093°23'0 0.0
2018-Jun-12 02:01N 30°04' W 093°23'0 0.0
2018-Jun-12 01:30N 30°04' W 093°23'0 0.9
2018-Jun-12 01:00N 30°04' W 093°24'3 6.5
2018-Jun-12 00:31N 30°04' W 093°27'13 6.9
2018-Jun-11 22:40N 30°03' W 093°42'1 6.3
2018-Jun-11 22:30N 30°03' W 093°43'3 6.4
2018-Jun-11 21:58N 30°01' W 093°46'3 6.5
2018-Jun-11 21:30N 29°59' W 093°49'3 5.7
2018-Jun-11 21:00N 29°58' W 093°51'3 6.5
2018-Jun-11 20:30N 29°55' W 093°53'3 6.6
2018-Jun-11 20:00N 29°52' W 093°56'3 6.5
2018-Jun-11 19:30N 29°49' W 093°58'3 6.0
2018-Jun-11 19:00N 29°48' W 094°01'3 6.8
2018-Jun-11 18:30N 29°46' W 094°04'4 6.7
2018-Jun-11 17:59N 29°43' W 094°07'3 6.7
2018-Jun-11 17:30N 29°41' W 094°10'3 6.3
2018-Jun-11 17:00N 29°40' W 094°13'34 5.6
2018-Jun-11 11:00N 29°23' W 094°46'0 0.0
2018-Jun-10 21:51N 29°23' W 094°46'0 0.0
2018-Jun-10 21:31N 29°23' W 094°46'  
Track history (hours):
 
Tides and Currents Weather Stations Pressure Air Temp Water Temp Dewpoint Dewpoint Depression Visibility Wind Speed Wind Dir Waves Ship Positions

Jessica Lyn

Owner: Peninsula Bay Enterprises, Crystal beach, TX. More information available from US FCC via Universal Licensing System and Coast Guard Vessel Documentation Center.

Last reported at 2018-Jun-20 01:30 UTC. Time now 2018-Jun-21 02:47 UTC.
Position N 29°37' W 094°51'.

Type: Fishing. MMSI: 367033730.

Date/timePositionNaut miles runAvg speedWind from/ knotsBaromVisibWave heightAir tempDewpointWater temp
2018-Jun-20 01:30N 29°37' W 094°51'0 0.0
2018-Jun-20 00:59N 29°37' W 094°51'  
2018-Jun-16 12:52N 29°38' W 094°18'2 5.7
2018-Jun-16 12:30N 29°39' W 094°16'3 5.8
2018-Jun-16 12:00N 29°41' W 094°13'3 5.4
2018-Jun-16 11:30N 29°41' W 094°10'2 4.6
2018-Jun-16 11:00N 29°43' W 094°08'3 6.0
2018-Jun-16 10:30N 29°45' W 094°05'3 6.2
2018-Jun-16 10:00N 29°47' W 094°02'3 6.0
2018-Jun-16 09:30N 29°49' W 093°60'2 4.7
2018-Jun-16 09:01N 29°50' W 093°57'3 6.1
2018-Jun-16 08:30N 29°52' W 093°56'3 5.7
2018-Jun-16 08:00N 29°55' W 093°54'3 6.6
2018-Jun-16 07:30N 29°57' W 093°52'2 4.8
2018-Jun-16 07:00N 29°59' W 093°49'3 5.8
2018-Jun-16 06:30N 30°00' W 093°46'3 6.1
2018-Jun-16 05:58N 30°03' W 093°44'3 5.7
2018-Jun-16 05:29N 30°04' W 093°41'7 5.6
2018-Jun-16 04:08N 30°04' W 093°32'1 5.2
2018-Jun-16 03:59N 30°04' W 093°31'2 5.1
2018-Jun-16 03:31N 30°04' W 093°28'3 5.2
2018-Jun-16 03:00N 30°04' W 093°25'2 4.7
2018-Jun-16 02:31N 30°04' W 093°23'2 3.8
2018-Jun-16 02:01N 30°04' W 093°21'1 2.2
2018-Jun-16 01:31N 30°05' W 093°20'2 3.3
2018-Jun-16 01:01N 30°06' W 093°19'1 2.5
2018-Jun-16 00:30N 30°05' W 093°18'1 1.6
2018-Jun-16 00:00N 30°05' W 093°17'1 1.1
2018-Jun-15 23:31N 30°04' W 093°16'0 0.2
2018-Jun-15 23:00N 30°04' W 093°16'0 0.6
2018-Jun-15 22:30N 30°04' W 093°16'0 0.1
2018-Jun-15 22:01N 30°04' W 093°16'0 0.0
2018-Jun-15 21:30N 30°04' W 093°16'0 0.0
2018-Jun-15 21:00N 30°04' W 093°16'0 0.0
2018-Jun-15 20:30N 30°04' W 093°16'0 0.0
2018-Jun-15 20:00N 30°04' W 093°16'0 0.0
2018-Jun-15 19:30N 30°04' W 093°16'0 0.0
2018-Jun-15 19:01N 30°04' W 093°16'0 0.0
2018-Jun-15 18:31N 30°04' W 093°16'0 0.0
2018-Jun-15 18:01N 30°04' W 093°16'0 0.0
2018-Jun-15 17:31N 30°04' W 093°16'0 0.0
2018-Jun-15 17:00N 30°04' W 093°16'0 0.0
2018-Jun-15 16:31N 30°04' W 093°16'0 0.0
2018-Jun-15 16:00N 30°04' W 093°16'0 0.0
2018-Jun-15 15:31N 30°04' W 093°16'0 0.0
2018-Jun-15 15:00N 30°04' W 093°16'0 0.0
2018-Jun-15 14:30N 30°04' W 093°16'0 0.0
2018-Jun-15 14:00N 30°04' W 093°16'0 0.0
2018-Jun-15 13:30N 30°04' W 093°16'0 0.0
2018-Jun-15 13:00N 30°04' W 093°16'0 0.0
2018-Jun-15 12:30N 30°04' W 093°16'0 0.0
2018-Jun-15 12:00N 30°04' W 093°16'0 0.0
2018-Jun-15 11:30N 30°04' W 093°16'0 0.0
2018-Jun-15 11:01N 30°04' W 093°16'0 0.0
2018-Jun-15 10:30N 30°04' W 093°16'0 0.0
2018-Jun-15 10:00N 30°04' W 093°16'0 0.0
2018-Jun-15 09:31N 30°04' W 093°16'0 0.0
2018-Jun-15 09:00N 30°04' W 093°16'0 0.0
2018-Jun-15 08:30N 30°04' W 093°16'0 0.0
2018-Jun-15 08:01N 30°04' W 093°16'0 0.0
2018-Jun-15 07:30N 30°04' W 093°16'0 0.0
2018-Jun-15 07:00N 30°04' W 093°16'0 0.0
2018-Jun-15 06:31N 30°04' W 093°16'0 0.0
2018-Jun-15 06:00N 30°04' W 093°16'0 0.0
2018-Jun-15 05:31N 30°04' W 093°16'0 0.0
2018-Jun-15 05:00N 30°04' W 093°16'0 0.0
2018-Jun-15 04:31N 30°04' W 093°16'0 0.0
2018-Jun-15 04:01N 30°04' W 093°16'0 0.0
2018-Jun-15 03:31N 30°04' W 093°16'0 0.0
2018-Jun-15 03:00N 30°04' W 093°16'0 0.0
2018-Jun-15 02:31N 30°04' W 093°16'0 0.0
2018-Jun-15 02:01N 30°04' W 093°16'0 0.0
2018-Jun-15 01:30N 30°04' W 093°16'0 0.0
2018-Jun-15 01:01N 30°04' W 093°16'0 0.0
2018-Jun-15 00:31N 30°04' W 093°16'0 0.0
2018-Jun-15 00:01N 30°04' W 093°16'0 0.0
2018-Jun-14 23:30N 30°04' W 093°16'0 0.0
2018-Jun-14 23:01N 30°04' W 093°16'0 0.0
2018-Jun-14 22:30N 30°04' W 093°16'0 0.0
2018-Jun-14 22:00N 30°04' W 093°16'0 0.0
2018-Jun-14 21:30N 30°04' W 093°16'0 0.0
2018-Jun-14 21:01N 30°04' W 093°16'0 0.0
2018-Jun-14 20:30N 30°04' W 093°16'0 0.0
2018-Jun-14 20:00N 30°04' W 093°16'0 0.0
2018-Jun-14 19:30N 30°04' W 093°16'0 0.0
2018-Jun-14 19:00N 30°04' W 093°16'0 0.0
2018-Jun-14 18:30N 30°04' W 093°16'0 0.0
2018-Jun-14 18:01N 30°04' W 093°16'0 0.0
2018-Jun-14 17:31N 30°04' W 093°16'0 0.0
2018-Jun-14 17:01N 30°04' W 093°16'0 0.0
2018-Jun-14 16:31N 30°04' W 093°16'0 0.0
2018-Jun-14 16:00N 30°04' W 093°16'0 0.0
2018-Jun-14 15:31N 30°04' W 093°16'0 0.0
2018-Jun-14 15:01N 30°04' W 093°16'0 0.0
2018-Jun-14 14:30N 30°04' W 093°16'0 0.0
2018-Jun-14 14:00N 30°04' W 093°16'0 0.0
2018-Jun-14 13:30N 30°04' W 093°16'0 0.0
2018-Jun-14 13:01N 30°04' W 093°16'0 0.0
2018-Jun-14 12:30N 30°04' W 093°16'0 0.0
2018-Jun-14 12:00N 30°04' W 093°16'0 0.0
2018-Jun-14 11:31N 30°04' W 093°16'0 0.0
2018-Jun-14 11:00N 30°04' W 093°16'0 0.5
2018-Jun-14 10:30N 30°04' W 093°16'0 0.9
2018-Jun-14 10:00N 30°03' W 093°16'0 0.1
2018-Jun-14 09:31N 30°03' W 093°16'1 2.4
2018-Jun-14 09:00N 30°02' W 093°15'2 4.9
2018-Jun-14 08:30N 30°00' W 093°14'3 4.8
2018-Jun-14 07:57N 29°58' W 093°12'1 2.0
2018-Jun-14 07:30N 29°58' W 093°11'0 0.0
2018-Jun-14 07:01N 29°58' W 093°11'1 2.6
2018-Jun-14 06:31N 29°57' W 093°10'0 0.0
2018-Jun-14 05:57N 29°57' W 093°10'0 0.0
2018-Jun-14 05:30N 29°57' W 093°10'0 0.0
2018-Jun-14 05:00N 29°57' W 093°10'0 0.0
2018-Jun-14 04:30N 29°57' W 093°10'0 0.0
2018-Jun-14 04:00N 29°57' W 093°10'1 2.4
2018-Jun-14 03:30N 29°56' W 093°09'42 4.9
2018-Jun-13 18:55N 29°51' W 092°21'2 4.5
2018-Jun-13 18:26N 29°50' W 092°18'2 4.9
2018-Jun-13 18:01N 29°49' W 092°17'3 5.4
2018-Jun-13 17:30N 29°48' W 092°14'1 2.7
2018-Jun-13 17:01N 29°47' W 092°12'1 2.0
2018-Jun-13 16:30N 29°47' W 092°11'3 5.2
2018-Jun-13 16:00N 29°47' W 092°08'3 5.3
2018-Jun-13 15:30N 29°48' W 092°05'3 5.3
2018-Jun-13 15:00N 29°49' W 092°02'3 5.7
2018-Jun-13 14:30N 29°50' W 091°59'4 0.2
2018-Jun-12 20:00N 29°49' W 092°03'3 5.5
2018-Jun-12 19:29N 29°48' W 092°06'3 5.4
2018-Jun-12 19:00N 29°47' W 092°09'3 5.3
2018-Jun-12 18:30N 29°47' W 092°12'1 1.0
2018-Jun-12 18:00N 29°47' W 092°13'3 5.9
2018-Jun-12 17:30N 29°49' W 092°16'3 5.6
2018-Jun-12 16:59N 29°50' W 092°19'44 5.1
2018-Jun-12 08:16N 29°56' W 093°09'1 4.5
2018-Jun-12 07:59N 29°57' W 093°10'3 5.4
2018-Jun-12 07:28N 29°59' W 093°12'2 4.4
2018-Jun-12 07:00N 30°01' W 093°14'2 4.7
2018-Jun-12 06:30N 30°02' W 093°16'3 5.3
2018-Jun-12 06:00N 30°05' W 093°17'1 1.6
2018-Jun-12 05:31N 30°05' W 093°18'1 1.5
2018-Jun-12 05:00N 30°06' W 093°18'1 1.6
2018-Jun-12 04:30N 30°06' W 093°19'2 3.9
2018-Jun-12 04:01N 30°04' W 093°21'2 3.9
2018-Jun-12 03:30N 30°04' W 093°23'0 0.7
2018-Jun-12 03:00N 30°04' W 093°23'0 0.0
2018-Jun-12 02:30N 30°04' W 093°23'0 0.0
2018-Jun-12 02:01N 30°04' W 093°23'0 0.0
2018-Jun-12 01:30N 30°04' W 093°23'0 0.9
2018-Jun-12 01:00N 30°04' W 093°24'3 6.5
2018-Jun-12 00:31N 30°04' W 093°27'13 6.9
2018-Jun-11 22:40N 30°03' W 093°42'1 6.3
2018-Jun-11 22:30N 30°03' W 093°43'3 6.4
2018-Jun-11 21:58N 30°01' W 093°46'3 6.5
2018-Jun-11 21:30N 29°59' W 093°49'3 5.7
2018-Jun-11 21:00N 29°58' W 093°51'3 6.5
2018-Jun-11 20:30N 29°55' W 093°53'3 6.6
2018-Jun-11 20:00N 29°52' W 093°56'3 6.5
2018-Jun-11 19:30N 29°49' W 093°58'3 6.0
2018-Jun-11 19:00N 29°48' W 094°01'3 6.8
2018-Jun-11 18:30N 29°46' W 094°04'4 6.7
2018-Jun-11 17:59N 29°43' W 094°07'3 6.7
2018-Jun-11 17:30N 29°41' W 094°10'3 6.3
2018-Jun-11 17:00N 29°40' W 094°13'34 5.6
2018-Jun-11 11:00N 29°23' W 094°46'0 0.0
2018-Jun-10 21:51N 29°23' W 094°46'0 0.0
2018-Jun-10 21:31N 29°23' W 094°46'  

Dump ship's entire track history